Terminal Aerodrome Forecast
Issued by NWS

Home | Current Version | Previous Version | Text Only | Print | Product List | Glossary On
Versions: 1 2 3 4 5 6 7 8 9 10 11 12 13 14 15 16 17 18 19
000
FTUS43 KIND 181723
TAFLAF
TAF
KLAF 181723Z 1818/1918 34013KT 3SM SHRA BR VCTS OVC008CB
     FM182100 35015KT 5SM SHRA BR OVC010
      TEMPO 1821/1823 5SM SHRA BR OVC008
     FM182300 34015KT 4SM SHRA BR OVC010
     FM190000 33014G29KT 4SM -SHRA BR OVC015
     FM190200 32017G32KT P6SM OVC020
     FM191400 30009KT P6SM SCT025
     FM191700 29010KT P6SM FEW140=

USA.gov is the U.S. government's official web portal to all federal, state and local government web resources and services.